Fish Haven, Idaho
Current Conditions -  °F | °C
As of 5:51 AM on Friday 24 Oct 2014 (Local Time) from KLGU Reporting Station
Clear Clear  
Wind Chill: 38°   Ceiling: Unl
Heat Index: 38°   Visibility: 10mi
Dew Point: 34°   Wind: 0mph
Humidity: 86%   Direction: NA
Pressure: 30.15"   Gusts: NA
Location:  42.04°N, 111.4°W
Report Text: KLGU 241151Z AUTO 00000KT 10SM CLR 03/01 A3015 RMK AO2 SLP194 T00330011 10083 20033 51007 TSNO
Loading
Personal Weather Stations






























Interactive Weather Map
Tropical Storm Tracking
New forecast layout! Learn more

10-Day Weather Forecast

Advertisements
Track Severe Weather on mobile